createdAt,value
2018-09-30T00:00:31.447Z,82.60
2018-09-30T00:02:59.963Z,83.10
2018-09-30T00:05:28.484Z,85.50
2018-09-30T00:07:56.932Z,84.90
2018-09-30T00:10:25.704Z,83.00
2018-09-30T00:12:54.494Z,81.60
2018-09-30T00:15:22.988Z,82.10
2018-09-30T00:17:51.477Z,83.00
2018-09-30T00:20:19.921Z,84.00
2018-09-30T00:22:48.365Z,84.00
2018-09-30T00:25:22.101Z,84.40
2018-09-30T00:30:18.781Z,83.90
2018-09-30T00:35:15.365Z,85.00
2018-09-30T00:37:43.902Z,85.30
2018-09-30T00:40:12.422Z,85.50
2018-09-30T00:42:40.866Z,86.00
2018-09-30T00:45:09.294Z,87.00
2018-09-30T00:47:37.718Z,86.10
2018-09-30T00:50:06.114Z,86.00
2018-09-30T00:55:02.853Z,86.50
2018-09-30T00:57:31.315Z,87.30
2018-09-30T01:00:07.050Z,86.60
2018-09-30T01:02:35.518Z,86.50
2018-09-30T01:05:04.213Z,87.00
2018-09-30T01:07:32.685Z,88.00
2018-09-30T01:10:01.133Z,87.50
2018-09-30T01:12:29.763Z,86.80
2018-09-30T01:14:58.179Z,87.40
2018-09-30T01:17:26.796Z,87.30
2018-09-30T01:19:55.221Z,87.60
2018-09-30T01:22:23.771Z,86.90
2018-09-30T01:24:52.225Z,87.80
2018-09-30T01:27:20.702Z,88.10
2018-09-30T01:29:49.130Z,88.00
2018-09-30T01:32:18.277Z,88.70
2018-09-30T01:34:46.681Z,89.30
2018-09-30T01:37:15.152Z,89.50
2018-09-30T01:39:43.561Z,88.80
2018-09-30T01:42:12.125Z,88.80
2018-09-30T01:44:40.600Z,88.50
2018-09-30T01:47:09.083Z,89.00
2018-09-30T01:49:37.499Z,89.60
2018-09-30T01:52:17.171Z,88.00
2018-09-30T01:54:45.662Z,89.10
2018-09-30T01:57:14.334Z,90.00
2018-09-30T01:59:42.826Z,89.80
2018-09-30T02:02:11.262Z,88.00
2018-09-30T02:04:39.672Z,88.70
2018-09-30T02:07:08.153Z,88.60
2018-09-30T02:09:36.896Z,89.00
2018-09-30T02:12:05.365Z,89.80
2018-09-30T02:14:34.018Z,89.30
2018-09-30T02:17:02.591Z,89.90
2018-09-30T02:19:31.223Z,90.40
2018-09-30T02:21:59.989Z,90.00
2018-09-30T02:24:28.391Z,90.30
2018-09-30T02:26:56.827Z,90.30
2018-09-30T02:29:25.583Z,90.10
2018-09-30T02:31:54.033Z,90.10
2018-09-30T02:34:22.712Z,90.00
2018-09-30T02:36:51.134Z,90.30
2018-09-30T02:39:19.593Z,90.10
2018-09-30T02:41:48.103Z,90.60
2018-09-30T02:44:16.525Z,90.50
2018-09-30T02:46:45.018Z,90.40
2018-09-30T02:49:13.469Z,90.30
2018-09-30T02:51:42.113Z,90.40
2018-09-30T02:54:10.513Z,90.40
2018-09-30T02:56:39.011Z,91.00
2018-09-30T02:59:07.431Z,90.90
2018-09-30T03:01:35.838Z,91.10
2018-09-30T03:04:04.275Z,90.90
2018-09-30T03:06:38.067Z,91.00
2018-09-30T03:09:15.400Z,90.90
2018-09-30T03:11:44.398Z,91.10
2018-09-30T03:14:13.964Z,90.90
2018-09-30T03:16:43.113Z,90.90
2018-09-30T03:19:11.679Z,91.00
2018-09-30T03:21:40.152Z,91.00
2018-09-30T03:24:09.188Z,90.80
2018-09-30T03:26:37.661Z,91.10
2018-09-30T03:29:06.195Z,90.90
2018-09-30T03:31:34.597Z,90.90
2018-09-30T03:34:03.078Z,90.60
2018-09-30T03:36:31.534Z,91.10
2018-09-30T03:38:59.994Z,91.20
2018-09-30T03:41:28.402Z,91.10
2018-09-30T03:43:56.990Z,91.40
2018-09-30T03:46:25.490Z,91.30
2018-09-30T03:48:54.114Z,91.30
2018-09-30T03:51:22.515Z,91.40
2018-09-30T03:53:50.975Z,91.70
2018-09-30T03:56:19.474Z,92.00
2018-09-30T03:58:48.110Z,91.20
2018-09-30T04:01:16.647Z,91.40
2018-09-30T04:03:45.345Z,91.60
2018-09-30T04:06:13.750Z,91.40
2018-09-30T04:08:42.295Z,91.30
2018-09-30T04:11:10.811Z,91.30
2018-09-30T04:13:39.346Z,91.10
2018-09-30T04:16:07.760Z,91.10
2018-09-30T04:18:36.511Z,90.90
2018-09-30T04:21:04.924Z,91.10
2018-09-30T04:23:33.660Z,91.50
2018-09-30T04:26:02.264Z,91.60
2018-09-30T04:30:58.867Z,91.20
2018-09-30T04:35:55.611Z,91.60
2018-09-30T04:38:24.049Z,91.80
2018-09-30T04:40:52.471Z,91.90
2018-09-30T04:45:49.086Z,91.20
2018-09-30T04:48:17.539Z,91.50
2018-09-30T04:50:45.981Z,92.20
2018-09-30T04:53:14.447Z,91.90
2018-09-30T04:55:42.871Z,92.20
2018-09-30T04:58:11.468Z,92.20
2018-09-30T05:00:39.917Z,92.50
2018-09-30T05:03:08.341Z,92.20
2018-09-30T05:05:36.746Z,92.10
2018-09-30T05:08:05.280Z,91.70
2018-09-30T05:10:33.715Z,92.00
2018-09-30T05:13:02.209Z,93.20
2018-09-30T05:15:30.798Z,92.60
2018-09-30T05:17:59.304Z,92.40
2018-09-30T05:20:27.913Z,92.20
2018-09-30T05:22:56.425Z,92.50
2018-09-30T05:25:24.839Z,92.50
2018-09-30T05:27:53.269Z,92.50
2018-09-30T05:30:21.903Z,92.70
2018-09-30T05:32:50.513Z,92.70
2018-09-30T05:35:18.965Z,92.70
2018-09-30T05:37:47.546Z,92.40
2018-09-30T05:40:16.115Z,92.40
2018-09-30T05:42:44.526Z,92.70
2018-09-30T05:45:12.954Z,92.90
2018-09-30T05:47:41.398Z,92.60
2018-09-30T05:50:09.850Z,93.00
2018-09-30T05:52:38.449Z,93.10
2018-09-30T05:55:06.949Z,92.70
2018-09-30T05:57:35.486Z,92.80
2018-09-30T06:00:04.260Z,92.60
2018-09-30T06:02:32.673Z,92.50
2018-09-30T06:05:01.119Z,92.10
2018-09-30T06:07:29.815Z,92.30
2018-09-30T06:09:58.272Z,91.50
2018-09-30T06:12:26.794Z,91.60
2018-09-30T06:14:55.262Z,91.60
2018-09-30T06:17:23.730Z,91.20
2018-09-30T06:19:52.438Z,91.30
2018-09-30T06:22:20.877Z,91.50
2018-09-30T06:24:49.494Z,91.40
2018-09-30T06:27:17.960Z,91.10
2018-09-30T06:29:46.480Z,91.30
2018-09-30T06:32:14.959Z,91.30
2018-09-30T06:34:43.605Z,91.00
2018-09-30T06:37:12.085Z,91.60
2018-09-30T06:39:40.782Z,91.20
2018-09-30T06:42:09.302Z,91.10
2018-09-30T06:44:37.742Z,91.30
2018-09-30T06:47:06.161Z,91.30
2018-09-30T06:49:34.748Z,91.50
2018-09-30T06:52:03.268Z,91.00
2018-09-30T06:54:32.052Z,90.60
2018-09-30T06:57:00.658Z,90.70
2018-09-30T06:59:29.149Z,90.50
2018-09-30T07:01:57.578Z,90.10
2018-09-30T07:04:26.381Z,90.00
2018-09-30T07:06:54.847Z,90.20
2018-09-30T07:09:23.311Z,89.90
2018-09-30T07:11:51.831Z,90.20
2018-09-30T07:14:20.312Z,90.30
2018-09-30T07:16:48.747Z,90.20
2018-09-30T07:19:17.353Z,90.30
2018-09-30T07:21:45.814Z,89.90
2018-09-30T07:24:14.334Z,89.10
2018-09-30T07:26:42.771Z,88.30
2018-09-30T07:29:11.248Z,88.40
2018-09-30T07:31:39.692Z,88.20
2018-09-30T07:34:08.200Z,88.10
2018-09-30T07:36:36.605Z,87.80
2018-09-30T07:39:07.464Z,88.20
2018-09-30T07:41:35.943Z,87.40
2018-09-30T07:44:04.515Z,86.60
2018-09-30T07:46:33.025Z,86.30
2018-09-30T07:49:01.484Z,87.50
2018-09-30T07:51:29.919Z,87.30
2018-09-30T07:53:58.347Z,86.90
2018-09-30T07:56:27.011Z,86.60
2018-09-30T07:58:55.649Z,86.00
2018-09-30T08:01:24.142Z,86.80
2018-09-30T08:03:52.882Z,86.30
2018-09-30T08:06:21.476Z,86.90
2018-09-30T08:08:50.648Z,86.10
2018-09-30T08:11:20.050Z,84.90
2018-09-30T08:13:48.674Z,83.80
2018-09-30T08:16:17.181Z,83.00
2018-09-30T08:18:45.808Z,82.60
2018-09-30T08:21:14.269Z,83.00
2018-09-30T08:23:42.732Z,83.30
2018-09-30T08:26:11.194Z,83.40
2018-09-30T08:28:39.703Z,83.90
2018-09-30T08:31:08.423Z,85.00
2018-09-30T08:33:36.941Z,88.80
2018-09-30T08:36:07.235Z,87.70
2018-09-30T08:38:37.046Z,87.10
2018-09-30T08:41:06.840Z,89.40
2018-09-30T08:43:37.639Z,88.00
2018-09-30T08:46:06.633Z,87.70
2018-09-30T08:48:35.083Z,86.30
2018-09-30T08:51:03.753Z,86.20
2018-09-30T08:53:32.299Z,85.40
2018-09-30T08:56:00.844Z,84.80
2018-09-30T08:58:30.071Z,85.50
2018-09-30T09:00:58.665Z,85.90
2018-09-30T09:03:27.450Z,85.50
2018-09-30T09:05:55.882Z,83.50
2018-09-30T09:08:24.375Z,83.60
2018-09-30T09:10:53.006Z,83.70
2018-09-30T09:13:21.498Z,83.50
2018-09-30T09:15:50.012Z,84.40
2018-09-30T09:18:18.651Z,84.40
2018-09-30T09:20:47.283Z,85.00
2018-09-30T09:23:15.708Z,84.90
2018-09-30T09:25:44.146Z,84.30
2018-09-30T09:28:12.832Z,83.20
2018-09-30T09:30:41.767Z,83.20
2018-09-30T09:33:10.445Z,83.70
2018-09-30T09:35:39.208Z,84.40
2018-09-30T09:38:07.806Z,82.60
2018-09-30T09:40:36.322Z,82.60
2018-09-30T09:43:04.870Z,82.70
2018-09-30T09:45:33.287Z,82.90
2018-09-30T09:48:01.721Z,83.80
2018-09-30T09:50:30.240Z,84.70
2018-09-30T09:52:58.682Z,84.80
2018-09-30T09:55:27.142Z,84.00
2018-09-30T09:57:55.640Z,84.50
2018-09-30T10:00:29.340Z,84.80
2018-09-30T10:02:57.982Z,84.10
2018-09-30T10:05:26.400Z,83.60
2018-09-30T10:07:54.859Z,83.40
2018-09-30T10:10:23.351Z,83.50
2018-09-30T10:12:51.811Z,83.40
2018-09-30T10:15:21.071Z,82.70
2018-09-30T10:17:49.582Z,83.10
2018-09-30T10:20:18.135Z,82.80
2018-09-30T10:22:46.630Z,83.30
2018-09-30T10:25:15.087Z,83.50
2018-09-30T10:27:43.566Z,83.00
2018-09-30T10:30:12.189Z,83.70
2018-09-30T10:32:40.662Z,83.60
2018-09-30T10:35:09.276Z,83.60
2018-09-30T10:37:37.718Z,83.60
2018-09-30T10:40:06.132Z,84.00
2018-09-30T10:42:34.646Z,83.50
2018-09-30T10:45:03.176Z,83.00
2018-09-30T10:47:31.620Z,83.10
2018-09-30T10:50:00.449Z,83.10
2018-09-30T10:52:28.978Z,83.30
2018-09-30T10:54:57.395Z,82.80
2018-09-30T10:57:25.906Z,82.30
2018-09-30T10:59:54.670Z,82.40
2018-09-30T11:02:23.441Z,81.50
2018-09-30T11:04:51.886Z,82.80
2018-09-30T11:07:20.544Z,82.10
2018-09-30T11:09:49.049Z,81.80
2018-09-30T11:12:17.715Z,82.00
2018-09-30T11:14:46.149Z,82.40
2018-09-30T11:17:14.718Z,81.00
2018-09-30T11:19:43.195Z,81.20
2018-09-30T11:22:11.651Z,80.30
2018-09-30T11:24:40.182Z,79.10
2018-09-30T11:27:08.834Z,78.50
2018-09-30T11:29:37.568Z,78.20
2018-09-30T11:32:06.508Z,82.80
2018-09-30T11:34:35.494Z,78.40
2018-09-30T11:37:03.990Z,83.70
2018-09-30T11:39:32.761Z,77.90
2018-09-30T11:42:02.042Z,77.70
2018-09-30T11:44:30.564Z,83.80
2018-09-30T11:46:59.184Z,79.00
2018-09-30T11:49:27.637Z,78.00
2018-09-30T11:51:56.069Z,76.10
2018-09-30T11:54:24.521Z,78.30
2018-09-30T11:56:52.985Z,78.60
2018-09-30T11:59:21.486Z,79.20
2018-09-30T12:01:49.991Z,71.80
2018-09-30T12:04:18.544Z,72.00
2018-09-30T12:06:46.972Z,70.20
2018-09-30T12:09:15.390Z,68.50
2018-09-30T12:11:44.006Z,69.00
2018-09-30T12:14:12.465Z,72.00
2018-09-30T12:16:40.876Z,69.40
2018-09-30T12:19:09.323Z,69.10
2018-09-30T12:21:37.837Z,69.20
2018-09-30T12:24:06.347Z,69.90
2018-09-30T12:26:34.778Z,66.90
2018-09-30T12:29:03.222Z,66.50
2018-09-30T12:31:31.686Z,65.20
2018-09-30T12:34:00.129Z,64.50
2018-09-30T12:36:28.560Z,64.40
2018-09-30T12:38:57.003Z,65.00
2018-09-30T12:41:25.431Z,63.90
2018-09-30T12:43:54.492Z,62.80
2018-09-30T12:46:22.928Z,62.90
2018-09-30T12:48:51.449Z,64.40
2018-09-30T12:51:20.507Z,62.50
2018-09-30T12:53:49.301Z,62.30
2018-09-30T12:56:17.819Z,60.40
2018-09-30T12:58:46.265Z,60.60
2018-09-30T13:01:15.292Z,60.20
2018-09-30T13:03:43.845Z,58.90
2018-09-30T13:06:12.366Z,59.20
2018-09-30T13:08:40.870Z,58.90
2018-09-30T13:11:09.882Z,58.30
2018-09-30T13:13:38.912Z,58.10
2018-09-30T13:16:07.394Z,57.70
2018-09-30T13:18:36.439Z,58.60
2018-09-30T13:21:04.993Z,57.40
2018-09-30T13:23:34.160Z,57.20
2018-09-30T13:26:03.156Z,57.50
2018-09-30T13:28:32.230Z,57.00
2018-09-30T13:31:01.351Z,57.00
2018-09-30T13:33:29.832Z,57.10
2018-09-30T13:35:58.995Z,55.30
2018-09-30T13:38:28.071Z,55.20
2018-09-30T13:40:57.348Z,55.10
2018-09-30T13:43:26.485Z,55.00
2018-09-30T13:45:55.646Z,55.40
2018-09-30T13:48:24.883Z,54.90
2018-09-30T13:50:53.877Z,53.80
2018-09-30T13:53:22.987Z,53.30
2018-09-30T13:55:51.992Z,54.20
2018-09-30T13:58:21.319Z,53.00
2018-09-30T14:00:50.502Z,52.20
2018-09-30T14:03:19.546Z,50.50
2018-09-30T14:05:48.602Z,48.00
2018-09-30T14:08:17.708Z,44.30
2018-09-30T14:10:46.858Z,40.80
2018-09-30T14:13:15.879Z,38.10
2018-09-30T14:15:44.949Z,36.00
2018-09-30T14:18:13.970Z,34.40
2018-09-30T14:20:43.042Z,34.00
2018-09-30T14:23:12.366Z,33.50
2018-09-30T14:25:41.442Z,33.10
2018-09-30T14:28:10.637Z,32.30
2018-09-30T14:30:39.715Z,32.10
2018-09-30T14:33:08.702Z,31.40
2018-09-30T14:35:37.702Z,30.70
2018-09-30T14:38:06.733Z,30.70
2018-09-30T14:40:35.731Z,31.30
2018-09-30T14:43:04.799Z,31.10
2018-09-30T14:45:33.919Z,31.30
2018-09-30T14:48:02.976Z,30.90
2018-09-30T14:50:32.119Z,30.00
2018-09-30T14:53:01.108Z,30.60
2018-09-30T14:55:30.275Z,30.00
2018-09-30T14:57:59.346Z,29.80
2018-09-30T15:00:28.405Z,29.40
2018-09-30T15:02:57.471Z,30.20
2018-09-30T15:05:26.632Z,30.00
2018-09-30T15:07:55.633Z,30.00
2018-09-30T15:10:24.650Z,30.00
2018-09-30T15:12:53.683Z,30.60
2018-09-30T15:15:22.838Z,31.30
2018-09-30T15:17:51.850Z,31.30
2018-09-30T15:20:21.008Z,31.80
2018-09-30T15:22:50.090Z,32.20
2018-09-30T15:25:19.190Z,32.40
2018-09-30T15:27:48.197Z,32.80
2018-09-30T15:30:17.228Z,33.10
2018-09-30T15:32:46.232Z,34.60
2018-09-30T15:35:15.545Z,36.20
2018-09-30T15:37:44.559Z,38.30
2018-09-30T15:40:13.614Z,41.50
2018-09-30T15:42:49.071Z,45.20
2018-09-30T15:45:18.571Z,48.70
2018-09-30T15:47:48.114Z,51.80
2018-09-30T15:50:17.319Z,54.30
2018-09-30T15:52:45.964Z,56.60
2018-09-30T15:55:14.459Z,57.90
2018-09-30T15:57:46.860Z,59.20
2018-09-30T16:00:15.548Z,60.90
2018-09-30T16:02:44.601Z,63.20
2018-09-30T16:05:13.085Z,63.40
2018-09-30T16:07:41.637Z,63.90
2018-09-30T16:10:10.091Z,64.50
2018-09-30T16:12:38.733Z,65.60
2018-09-30T16:15:07.339Z,66.60
2018-09-30T16:17:35.777Z,67.90
2018-09-30T16:20:04.322Z,68.50
2018-09-30T16:22:32.772Z,70.50
2018-09-30T16:25:01.334Z,70.80
2018-09-30T16:27:29.836Z,71.70
2018-09-30T16:29:59.724Z,72.40
2018-09-30T16:32:28.170Z,73.10
2018-09-30T16:34:56.695Z,74.10
2018-09-30T16:37:25.119Z,74.50
2018-09-30T16:39:53.565Z,74.90
2018-09-30T16:42:22.088Z,76.90
2018-09-30T16:44:50.722Z,76.70
2018-09-30T16:47:19.186Z,77.70
2018-09-30T16:49:47.675Z,78.20
2018-09-30T16:52:16.086Z,79.20
2018-09-30T16:54:44.640Z,79.70
2018-09-30T16:57:13.206Z,81.00
2018-09-30T16:59:41.667Z,81.40
2018-09-30T17:02:10.349Z,83.50
2018-09-30T17:04:38.792Z,84.50
2018-09-30T17:07:07.217Z,85.70
2018-09-30T17:09:35.659Z,86.20
2018-09-30T17:12:04.175Z,86.20
2018-09-30T17:14:32.607Z,85.50
2018-09-30T17:17:01.085Z,88.00
2018-09-30T17:19:29.492Z,88.50
2018-09-30T17:22:01.815Z,88.40
2018-09-30T17:24:30.269Z,90.00
2018-09-30T17:26:59.913Z,90.40
2018-09-30T17:29:28.850Z,90.20
2018-09-30T17:32:01.808Z,90.60
2018-09-30T17:34:30.367Z,90.90
2018-09-30T17:36:58.834Z,90.80
2018-09-30T17:39:27.265Z,91.20
2018-09-30T17:41:55.898Z,91.30
2018-09-30T17:44:24.320Z,91.70
2018-09-30T17:46:52.814Z,91.80
2018-09-30T17:49:21.258Z,92.10
2018-09-30T17:51:49.919Z,92.30
2018-09-30T17:54:18.346Z,92.50
2018-09-30T17:56:46.880Z,92.50
2018-09-30T17:59:15.398Z,93.20
2018-09-30T18:01:43.952Z,93.30
2018-09-30T18:04:12.454Z,93.40
2018-09-30T18:06:41.300Z,93.40
2018-09-30T18:09:10.692Z,93.90
2018-09-30T18:11:39.507Z,94.00
2018-09-30T18:14:16.000Z,94.30
2018-09-30T18:16:45.394Z,94.40
2018-09-30T18:19:14.014Z,94.60
2018-09-30T18:21:42.494Z,94.60
2018-09-30T18:24:10.948Z,94.40
2018-09-30T18:26:39.799Z,94.50
2018-09-30T18:29:08.293Z,94.90
2018-09-30T18:31:36.832Z,95.00
2018-09-30T18:34:05.305Z,95.30
2018-09-30T18:36:33.794Z,95.00
2018-09-30T18:39:02.234Z,95.40
2018-09-30T18:41:30.785Z,95.50
2018-09-30T18:43:59.192Z,95.80
2018-09-30T18:46:27.734Z,95.90
2018-09-30T18:48:56.312Z,95.70
2018-09-30T18:51:24.833Z,95.70
2018-09-30T18:53:53.298Z,96.00
2018-09-30T18:56:21.849Z,96.10
2018-09-30T18:58:50.452Z,96.20
2018-09-30T19:01:18.940Z,96.30
2018-09-30T19:03:47.404Z,96.20
2018-09-30T19:06:15.903Z,96.60
2018-09-30T19:08:44.400Z,96.50
2018-09-30T19:11:12.869Z,96.40
2018-09-30T19:13:41.394Z,96.40
2018-09-30T19:16:10.115Z,96.40
2018-09-30T19:18:38.806Z,96.40
2018-09-30T19:21:07.280Z,96.70
2018-09-30T19:23:35.878Z,96.80
2018-09-30T19:26:04.548Z,96.90
2018-09-30T19:28:33.199Z,97.10
2018-09-30T19:31:01.680Z,97.20
2018-09-30T19:33:30.227Z,97.20
2018-09-30T19:35:58.744Z,97.50
2018-09-30T19:38:27.186Z,97.30
2018-09-30T19:40:55.613Z,97.40
2018-09-30T19:43:24.094Z,97.30
2018-09-30T19:45:52.591Z,97.40
2018-09-30T19:48:21.186Z,97.40
2018-09-30T19:50:49.896Z,97.70
2018-09-30T19:53:18.434Z,97.60
2018-09-30T19:55:46.914Z,97.70
2018-09-30T19:58:15.430Z,97.40
2018-09-30T20:00:43.896Z,97.40
2018-09-30T20:03:12.356Z,97.50
2018-09-30T20:05:40.823Z,97.90
2018-09-30T20:08:09.393Z,98.10
2018-09-30T20:10:38.050Z,98.20
2018-09-30T20:13:07.008Z,98.10
2018-09-30T20:15:35.603Z,98.30
2018-09-30T20:18:04.151Z,98.30
2018-09-30T20:20:32.707Z,98.40
2018-09-30T20:23:01.253Z,98.60
2018-09-30T20:25:29.711Z,98.80
2018-09-30T20:27:58.315Z,98.80
2018-09-30T20:30:26.797Z,98.70
2018-09-30T20:32:55.287Z,98.70
2018-09-30T20:35:23.794Z,98.80
2018-09-30T20:37:52.272Z,99.10
2018-09-30T20:40:20.822Z,99.00
2018-09-30T20:42:49.374Z,99.10
2018-09-30T20:45:17.778Z,99.00
2018-09-30T20:47:46.231Z,99.30
2018-09-30T20:50:14.652Z,99.10
2018-09-30T20:52:43.146Z,99.20
2018-09-30T20:55:11.554Z,99.30
2018-09-30T20:57:40.032Z,99.30
2018-09-30T21:00:08.566Z,99.50
2018-09-30T21:02:37.007Z,99.40
2018-09-30T21:05:30.313Z,99.50
2018-09-30T21:07:58.767Z,99.40
2018-09-30T21:10:27.332Z,99.40
2018-09-30T21:12:56.049Z,99.50
2018-09-30T21:15:24.534Z,99.70
2018-09-30T21:17:53.039Z,99.80
2018-09-30T21:20:21.482Z,99.60
2018-09-30T21:22:50.048Z,99.60
2018-09-30T21:25:18.479Z,99.60
2018-09-30T21:27:46.962Z,99.40
2018-09-30T21:30:15.446Z,99.30
2018-09-30T21:32:43.888Z,99.30
2018-09-30T21:35:12.300Z,99.50
2018-09-30T21:37:40.751Z,99.40
2018-09-30T21:40:09.167Z,99.40
2018-09-30T21:42:37.621Z,99.60
2018-09-30T21:45:06.003Z,99.60
2018-09-30T21:47:34.485Z,99.50
2018-09-30T21:50:02.979Z,99.60
2018-09-30T21:52:31.444Z,99.70
2018-09-30T21:55:00.066Z,99.80
2018-09-30T21:57:28.678Z,99.90
2018-09-30T21:59:57.080Z,99.80
2018-09-30T22:02:25.561Z,99.80
2018-09-30T22:04:54.149Z,99.80
2018-09-30T22:07:22.849Z,99.80
2018-09-30T22:09:51.338Z,99.90
2018-09-30T22:12:19.781Z,99.90
2018-09-30T22:14:48.783Z,99.90
2018-09-30T22:17:17.303Z,99.90
2018-09-30T22:19:52.424Z,99.90
2018-09-30T22:22:20.868Z,99.90
2018-09-30T22:24:49.303Z,99.90
2018-09-30T22:27:17.771Z,99.90
2018-09-30T22:29:46.197Z,99.90
2018-09-30T22:32:14.807Z,99.90
2018-09-30T22:34:43.266Z,99.90
2018-09-30T22:37:11.876Z,99.90
2018-09-30T22:39:40.384Z,99.90
2018-09-30T22:42:09.302Z,99.90
2018-09-30T22:44:37.989Z,99.90
2018-09-30T22:47:06.438Z,99.90
2018-09-30T22:49:35.002Z,99.90
2018-09-30T22:52:03.469Z,99.90
2018-09-30T22:54:31.917Z,99.90
2018-09-30T22:57:00.411Z,99.90
2018-09-30T22:59:29.103Z,99.90
2018-09-30T23:01:57.583Z,99.90
2018-09-30T23:04:26.304Z,99.90
2018-09-30T23:06:54.999Z,99.90
2018-09-30T23:09:23.474Z,99.90
2018-09-30T23:11:51.886Z,99.90
2018-09-30T23:14:20.319Z,99.90
2018-09-30T23:16:48.777Z,99.90
2018-09-30T23:19:17.233Z,99.90
2018-09-30T23:21:46.024Z,99.90
2018-09-30T23:24:14.432Z,99.90
2018-09-30T23:26:43.059Z,99.90
2018-09-30T23:29:14.992Z,99.90
2018-09-30T23:31:43.448Z,99.90
2018-09-30T23:34:11.869Z,99.90
2018-09-30T23:36:40.479Z,99.90
2018-09-30T23:39:10.955Z,99.90
2018-09-30T23:41:39.442Z,99.90
2018-09-30T23:44:08.151Z,99.90
2018-09-30T23:46:36.594Z,99.90
2018-09-30T23:49:05.183Z,99.90
2018-09-30T23:51:33.699Z,99.90
2018-09-30T23:54:02.152Z,99.90
2018-09-30T23:56:30.594Z,99.90
2018-09-30T23:58:59.056Z,99.90
